Terminal Aerodrome Forecast
Issued by NWS Wilmington, NC

Home | Current Version | Previous Version | Text Only | Print | Product List | Glossary On
Versions: 1 2 3 4 5 6 7 8 9 10 11 12 13 14 15 16 17 18 19 20 21
000
FTUS42 KILM 240120 CCA
TAFFLO
TAF COR
KFLO 240120Z 2401/2424 27005KT P6SM VCTS BKN060CB
      TEMPO 2401/2403 2SM TSRA BKN035CB
     FM240400 24006KT P6SM VCSH BKN090
      TEMPO 2410/2414 4SM BR BKN008
     FM241500 08008KT P6SM BKN120
     FM241800 13004KT P6SM VCTS BKN040CB
     FM242200 02008KT P6SM BKN140=

USA.gov is the U.S. government's official web portal to all federal, state and local government web resources and services.